Bergman, AR (72615)

10:16 PM CDT on August 27, 2014 (GMT -0500)
AJ5C - Northwest Harrison | Change Station
CLOSE
Current Station
Personal Weather Station
Location: Harrison, AR
Elevation: 1266 ft
Nearby Weather Stations

Elev 1266 ft 36.26 °N, 93.15 °W | Updated 7 seconds ago

Clear
Clear
78.4 °F
Feels Like 81 °F
N
0.0
Wind Variable Wind from West
Gusts 0.0 mph

Today
High -- | Low -- °F
--% Chance of Precip.
Yesterday
High -- | Low -- °F
Precip. -- in
6:40 AM 7:47 PM
Waxing Crescent, 6% visible
Pressure 30.04 in
Visibility 9.0 miles
Clouds Clear
Heat Index 81 °F
Dew Point 73 °F
Humidity 83%
Rainfall 0.00 in
Snow Depth Not available.
UV 0 out of 12
Pollen 10.90 out of 12
Air Quality Not available.
Flu Activity Not available.
METAR KHRO 280253Z AUTO 17004KT 9SM CLR 25/22 A3009 RMK AO2 SLP170 T02500217 53018

More Conditions Fewer Conditions

Pressure 30.04 in
Visibility 9.0 miles
Clouds Clear
Heat Index 81 °F
Dew Point 73 °F
Humidity 83%
Rainfall 0.00 in
Snow Depth Not available.
UV 0 out of 12
Pollen 10.90 out of 12
Air Quality Not available.
Flu Activity Not available.
METAR KHRO 280253Z AUTO 17004KT 9SM CLR 25/22 A3009 RMK AO2 SLP170 T02500217 53018

More Conditions Fewer Conditions

10-Day Weather Forecast

Almanac

Astronomy

Aug. 27, 2014 Rise Set
Actual Time 6:40 AM CDT 7:47 PM CDT
Civil Twilight 6:13 AM CDT 8:13 PM CDT
Nautical Twilight 5:41 AM CDT 8:45 PM CDT
Astronomical Twilight 5:09 AM CDT 9:17 PM CDT
Moon 8:31 AM CDT (8/27) 8:45 PM CDT (8/27)
Length of Visible Light 14h 00m
Length of Day
13h 07m
Tomorrow will be 2m 9s shorter.
Waxing Crescent, 6% of the Moon is Illuminated
Today
Waxing Crescent
Sep 2
First Quarter
Sep 8
Full
Sep 15
Last Quarter
Sep 24
New

Today's Extremes

State Highs State Lows

Community

WunderPhotos

Upload Photos

1,747,892 photos uploaded!

Nearby

Snow Depth

Station Depth Elevation
No new snow has been reported.

Earthquake Activity

City Distance Mag. Time & Date
No recent earthquake activity has been reported nearby.
Minimum magnitude displayed is 2.5.

Coastal Water Temperatures

Place Temperature
No Stations Reporting

Nearby Weather Stations